Time;durP1;ratioP1;P1;durP2;ratioP2;P2;SDS_P1;SDS_P2;PMS_P1;PMS_P2;Temp;Humidity;BMP_temperature;BMP_pressure;BME280_temperature;BME280_humidity;BME280_pressure;Samples;Min_cycle;Max_cycle;Signal;HPM_P1;HPM_P2
2023/04/20 00:08:10;;;;;;;12.40;5.78;;;;;;;;;;20747156;28;20100;-69
2023/04/20 00:18:11;;;;;;;9.90;2.88;;;;;;;;;;20746181;28;20053;-69
2023/04/20 00:28:13;;;;;;;10.98;2.70;;;;;;;;;;20746329;28;20100;-69
2023/04/20 00:38:15;;;;;;;8.32;2.22;;;;;;;;;;20755392;28;20411;-70
2023/04/20 00:48:17;;;;;;;8.52;1.80;;;;;;;;;;20763157;28;20068;-69
2023/04/20 00:58:18;;;;;;;7.28;2.33;;;;;;;;;;20761288;28;20050;-70
2023/04/20 01:08:20;;;;;;;8.40;1.92;;;;;;;;;;20763059;28;20046;-69
2023/04/20 01:18:22;;;;;;;8.43;2.75;;;;;;;;;;20763391;28;20058;-69
2023/04/20 01:28:25;;;;;;;7.43;2.30;;;;;;;;;;20761291;28;20058;-69
2023/04/20 01:38:29;;;;;;;6.18;1.55;;;;;;;;;;20761689;28;20053;-69
2023/04/20 01:48:31;;;;;;;7.10;1.88;;;;;;;;;;20758744;28;20057;-70
2023/04/20 01:58:33;;;;;;;4.45;1.67;;;;;;;;;;20760171;28;20046;-69
2023/04/20 02:08:35;;;;;;;6.03;1.67;;;;;;;;;;20757431;28;20053;-69
2023/04/20 02:18:36;;;;;;;6.07;2.10;;;;;;;;;;20756224;28;20053;-69
2023/04/20 02:28:38;;;;;;;5.40;1.48;;;;;;;;;;20757107;28;20060;-70
2023/04/20 02:38:40;;;;;;;4.50;1.73;;;;;;;;;;20756218;28;20053;-68
2023/04/20 02:48:42;;;;;;;3.97;1.33;;;;;;;;;;20755559;28;20045;-69
2023/04/20 02:58:44;;;;;;;2.83;1.45;;;;;;;;;;20753793;28;20054;-69
2023/04/20 03:08:45;;;;;;;3.83;1.45;;;;;;;;;;20753893;28;20054;-70
2023/04/20 03:18:47;;;;;;;8.25;2.03;;;;;;;;;;20752681;28;20050;-68
2023/04/20 03:28:50;;;;;;;3.33;1.67;;;;;;;;;;20752850;28;20049;-69
2023/04/20 03:38:51;;;;;;;8.07;1.98;;;;;;;;;;20751699;28;20483;-69
2023/04/20 03:48:53;;;;;;;4.65;1.50;;;;;;;;;;20751064;28;20053;-68
2023/04/20 03:58:55;;;;;;;7.15;1.90;;;;;;;;;;20750687;28;20404;-69
2023/04/20 04:08:57;;;;;;;5.57;1.60;;;;;;;;;;20749623;28;20430;-69
2023/04/20 04:18:58;;;;;;;3.45;1.45;;;;;;;;;;20749248;28;20064;-69
2023/04/20 04:29:00;;;;;;;5.80;2.00;;;;;;;;;;20749361;28;20508;-69
2023/04/20 04:39:02;;;;;;;7.07;2.13;;;;;;;;;;20748062;28;20073;-70
2023/04/20 04:49:04;;;;;;;6.97;2.50;;;;;;;;;;20747226;28;20054;-69
2023/04/20 04:59:06;;;;;;;7.47;2.15;;;;;;;;;;20753881;28;20081;-70
2023/04/20 05:09:08;;;;;;;5.95;2.70;;;;;;;;;;20746508;28;20068;-70
2023/04/20 05:19:10;;;;;;;9.25;3.55;;;;;;;;;;20746761;28;20062;-70
2023/04/20 05:29:12;;;;;;;5.65;2.65;;;;;;;;;;20761010;28;20479;-70
2023/04/20 05:39:13;;;;;;;12.70;2.72;;;;;;;;;;20759817;28;20108;-70
2023/04/20 05:49:15;;;;;;;8.48;2.72;;;;;;;;;;20760414;28;20523;-68
2023/04/20 05:59:17;;;;;;;9.00;2.78;;;;;;;;;;20759432;28;20381;-68
2023/04/20 06:09:19;;;;;;;9.10;2.22;;;;;;;;;;20757769;28;20049;-67
2023/04/20 06:19:20;;;;;;;8.23;2.15;;;;;;;;;;20756439;28;20076;-67
2023/04/20 06:29:23;;;;;;;13.88;2.70;;;;;;;;;;20755160;28;20054;-68
2023/04/20 06:39:24;;;;;;;12.93;2.45;;;;;;;;;;20754491;28;20054;-67
2023/04/20 06:49:26;;;;;;;5.90;2.80;;;;;;;;;;20755458;28;20112;-67
2023/04/20 06:59:28;;;;;;;9.32;2.83;;;;;;;;;;20754392;28;20053;-70
2023/04/20 07:09:30;;;;;;;10.55;3.17;;;;;;;;;;20753472;28;20053;-68
2023/04/20 07:19:32;;;;;;;13.52;3.15;;;;;;;;;;20752124;28;20530;-69
2023/04/20 07:29:33;;;;;;;21.45;4.03;;;;;;;;;;20751228;28;20046;-70
2023/04/20 07:39:35;;;;;;;18.23;3.53;;;;;;;;;;20751400;28;20407;-71
2023/04/20 07:49:39;;;;;;;7.93;2.67;;;;;;;;;;20751595;28;20115;-71
2023/04/20 07:59:41;;;;;;;10.00;3.33;;;;;;;;;;20751207;28;20487;-71
2023/04/20 08:09:43;;;;;;;12.15;3.55;;;;;;;;;;20750254;28;20407;-70
2023/04/20 08:19:44;;;;;;;8.52;3.08;;;;;;;;;;20748228;28;20093;-71
2023/04/20 08:29:46;;;;;;;7.07;2.63;;;;;;;;;;20748136;28;20054;-70
2023/04/20 08:39:48;;;;;;;15.23;3.20;;;;;;;;;;20798803;28;20049;-72
2023/04/20 08:49:53;;;;;;;7.75;2.70;;;;;;;;;;20830834;28;20049;-68
2023/04/20 08:59:55;;;;;;;8.13;2.53;;;;;;;;;;20835524;28;20071;-69
2023/04/20 09:09:58;;;;;;;9.82;2.80;;;;;;;;;;20857804;28;20056;-73
2023/04/20 09:20:00;;;;;;;15.23;3.60;;;;;;;;;;20841764;28;20166;-69
2023/04/20 09:30:05;;;;;;;18.58;4.50;;;;;;;;;;20842907;28;20053;-69
2023/04/20 09:40:08;;;;;;;29.00;3.90;;;;;;;;;;20843727;28;20045;-74
2023/04/20 09:50:10;;;;;;;29.70;4.00;;;;;;;;;;20906516;28;20084;-67
2023/04/20 10:00:13;;;;;;;12.05;3.72;;;;;;;;;;20836626;28;20046;-63
2023/04/20 10:10:16;;;;;;;10.40;2.30;;;;;;;;;;20828416;28;20403;-62
2023/04/20 10:20:25;;;;;;;6.85;1.88;;;;;;;;;;20829023;28;20050;-63
2023/04/20 10:30:27;;;;;;;8.52;2.25;;;;;;;;;;20829182;28;20053;-63
2023/04/20 10:40:29;;;;;;;4.10;2.20;;;;;;;;;;20828673;28;20046;-62
2023/04/20 10:50:31;;;;;;;9.98;1.65;;;;;;;;;;20832913;28;20103;-63
2023/04/20 11:00:33;;;;;;;6.78;1.98;;;;;;;;;;20836278;28;20057;-63
2023/04/20 11:10:38;;;;;;;6.18;1.60;;;;;;;;;;20834339;28;20053;-62
2023/04/20 11:20:53;;;;;;;13.75;3.20;;;;;;;;;;20833391;28;20049;-63
2023/04/20 11:30:55;;;;;;;5.13;2.03;;;;;;;;;;20833673;28;20053;-62
2023/04/20 11:41:03;;;;;;;4.20;2.00;;;;;;;;;;20833144;28;20123;-62
2023/04/20 11:51:05;;;;;;;29.85;15.05;;;;;;;;;;20828552;28;20568;-69
2023/04/20 12:01:07;;;;;;;5.20;2.13;;;;;;;;;;20828730;28;20363;-64
2023/04/20 12:11:09;;;;;;;7.15;1.90;;;;;;;;;;20828914;28;20099;-65
2023/04/20 12:21:11;;;;;;;2.88;1.30;;;;;;;;;;20829785;28;20428;-66
2023/04/20 12:31:13;;;;;;;4.00;1.33;;;;;;;;;;20829352;28;20487;-65
2023/04/20 12:41:15;;;;;;;4.28;1.33;;;;;;;;;;20839387;28;20042;-66
2023/04/20 12:51:17;;;;;;;4.32;2.10;;;;;;;;;;20837373;28;20111;-65
2023/04/20 13:01:19;;;;;;;2.83;1.30;;;;;;;;;;20844041;28;20060;-66
2023/04/20 13:11:21;;;;;;;4.32;1.70;;;;;;;;;;20844915;28;20053;-66
2023/04/20 13:21:23;;;;;;;3.08;1.33;;;;;;;;;;20842930;28;20107;-66
2023/04/20 13:31:25;;;;;;;3.00;1.13;;;;;;;;;;20842986;28;20045;-66
2023/04/20 13:41:26;;;;;;;4.25;0.75;;;;;;;;;;20841724;28;20076;-67
2023/04/20 13:51:28;;;;;;;4.45;1.02;;;;;;;;;;20841981;28;20049;-65
2023/04/20 14:01:30;;;;;;;9.40;1.60;;;;;;;;;;20840688;28;20119;-66
2023/04/20 14:11:32;;;;;;;3.63;1.55;;;;;;;;;;20839356;28;20045;-66
2023/04/20 14:21:34;;;;;;;3.83;1.02;;;;;;;;;;20838468;28;20140;-66
2023/04/20 14:31:36;;;;;;;2.90;1.10;;;;;;;;;;20839220;28;20533;-66
2023/04/20 14:41:38;;;;;;;3.42;1.17;;;;;;;;;;20838379;28;20053;-66
2023/04/20 14:51:39;;;;;;;3.60;1.23;;;;;;;;;;20835673;28;20045;-66
2023/04/20 15:01:41;;;;;;;6.47;1.13;;;;;;;;;;20835399;28;20041;-66
2023/04/20 15:11:43;;;;;;;2.03;1.00;;;;;;;;;;20835643;28;20045;-67
2023/04/20 15:21:45;;;;;;;1.98;0.95;;;;;;;;;;20832480;28;20064;-67
2023/04/20 15:31:47;;;;;;;3.55;1.50;;;;;;;;;;20832377;28;20045;-62
2023/04/20 15:41:49;;;;;;;4.82;1.38;;;;;;;;;;20832179;28;20049;-66
2023/04/20 15:51:51;;;;;;;5.00;1.33;;;;;;;;;;20832846;28;20050;-71
2023/04/20 16:01:53;;;;;;;6.10;2.05;;;;;;;;;;20831398;28;20053;-76
2023/04/20 16:11:54;;;;;;;4.90;1.67;;;;;;;;;;20834976;28;20068;-71
2023/04/20 16:21:56;;;;;;;5.32;1.30;;;;;;;;;;20836754;28;20541;-74
2023/04/20 16:31:58;;;;;;;5.80;1.50;;;;;;;;;;20832024;28;20455;-71
2023/04/20 16:42:00;;;;;;;5.57;1.48;;;;;;;;;;20835881;28;20406;-73
2023/04/20 16:52:02;;;;;;;3.45;1.17;;;;;;;;;;20837896;28;20049;-75
2023/04/20 17:02:03;;;;;;;4.32;1.35;;;;;;;;;;20833263;28;20053;-76
2023/04/20 17:12:06;;;;;;;5.00;1.92;;;;;;;;;;20832038;28;20045;-74
2023/04/20 17:22:09;;;;;;;4.65;1.25;;;;;;;;;;20838991;28;20053;-67
2023/04/20 17:32:11;;;;;;;6.03;1.98;;;;;;;;;;20844545;28;20045;-65
2023/04/20 17:42:12;;;;;;;5.55;1.40;;;;;;;;;;20842164;28;20482;-67
2023/04/20 17:52:18;;;;;;;5.82;1.30;;;;;;;;;;20839157;28;20115;-66
2023/04/20 18:02:19;;;;;;;5.60;1.02;;;;;;;;;;20841487;28;20049;-67
2023/04/20 18:12:21;;;;;;;4.88;1.48;;;;;;;;;;20837249;28;20103;-65
2023/04/20 18:22:23;;;;;;;3.00;1.35;;;;;;;;;;20836963;28;20057;-63
2023/04/20 18:32:26;;;;;;;3.40;1.30;;;;;;;;;;20837762;28;20053;-64
2023/04/20 18:42:28;;;;;;;12.43;1.95;;;;;;;;;;20836867;28;20052;-62
2023/04/20 18:52:32;;;;;;;4.50;1.30;;;;;;;;;;20835469;28;20463;-62
2023/04/20 19:02:34;;;;;;;4.07;1.40;;;;;;;;;;20834813;28;20064;-62
2023/04/20 19:12:37;;;;;;;4.28;1.27;;;;;;;;;;20834751;28;20045;-62
2023/04/20 19:22:39;;;;;;;6.32;2.42;;;;;;;;;;20832493;28;20526;-62
2023/04/20 19:32:40;;;;;;;4.25;1.80;;;;;;;;;;20833011;28;20046;-62
2023/04/20 19:42:42;;;;;;;3.92;1.83;;;;;;;;;;20832291;28;20407;-63
2023/04/20 19:52:44;;;;;;;5.63;1.50;;;;;;;;;;20833637;28;20057;-62
2023/04/20 20:02:46;;;;;;;5.20;1.73;;;;;;;;;;20831673;28;20053;-63
2023/04/20 20:12:48;;;;;;;5.78;1.88;;;;;;;;;;20831002;28;20042;-62
2023/04/20 20:22:50;;;;;;;3.53;1.63;;;;;;;;;;20831052;28;20057;-63
2023/04/20 20:32:52;;;;;;;5.65;1.70;;;;;;;;;;20829640;28;20057;-62
2023/04/20 20:42:53;;;;;;;4.53;1.50;;;;;;;;;;20830660;28;20411;-62
2023/04/20 20:52:55;;;;;;;3.13;1.83;;;;;;;;;;20833869;28;20111;-63
2023/04/20 21:02:57;;;;;;;3.55;1.38;;;;;;;;;;20843459;28;20107;-64
2023/04/20 21:12:59;;;;;;;6.88;1.85;;;;;;;;;;20843048;28;20080;-62
2023/04/20 21:23:01;;;;;;;4.97;1.45;;;;;;;;;;20841468;28;20064;-63
2023/04/20 21:33:03;;;;;;;2.85;1.30;;;;;;;;;;20841374;28;20049;-62
2023/04/20 21:43:04;;;;;;;3.25;1.40;;;;;;;;;;20843015;28;20414;-62
2023/04/20 21:53:06;;;;;;;7.28;2.13;;;;;;;;;;20842481;28;20050;-62
2023/04/20 22:03:08;;;;;;;4.03;1.40;;;;;;;;;;20839633;28;20053;-62
2023/04/20 22:13:12;;;;;;;3.05;1.55;;;;;;;;;;20840344;28;20045;-62
2023/04/20 22:23:13;;;;;;;5.45;2.22;;;;;;;;;;20838886;28;20053;-61
2023/04/20 22:33:15;;;;;;;2.42;1.40;;;;;;;;;;20838002;28;20049;-61
2023/04/20 22:43:18;;;;;;;3.05;1.60;;;;;;;;;;20837392;28;20050;-63
2023/04/20 22:53:20;;;;;;;4.80;2.10;;;;;;;;;;20836788;28;20046;-61
2023/04/20 23:03:22;;;;;;;10.93;2.28;;;;;;;;;;20836011;28;20380;-62
2023/04/20 23:13:24;;;;;;;5.28;2.17;;;;;;;;;;20833555;28;20046;-62
2023/04/20 23:23:26;;;;;;;4.63;1.70;;;;;;;;;;20834689;28;20061;-61
2023/04/20 23:33:28;;;;;;;3.42;1.90;;;;;;;;;;20833268;28;20046;-62
2023/04/20 23:43:30;;;;;;;3.97;1.58;;;;;;;;;;20832636;28;20056;-62
2023/04/20 23:53:35;;;;;;;3.92;1.73;;;;;;;;;;20832147;28;20398;-62
